sensor_id;sensor_type;location;lat;lon;timestamp;temperature;humidity
33269;DHT22;19640;50.944;5.260;2023-04-03T00:02:15;3.80;99.90
33269;DHT22;19640;50.944;5.260;2023-04-03T00:04:40;3.80;99.90
33269;DHT22;19640;50.944;5.260;2023-04-03T00:07:06;3.70;99.90
33269;DHT22;19640;50.944;5.260;2023-04-03T00:09:32;3.70;99.90
33269;DHT22;19640;50.944;5.260;2023-04-03T00:11:58;3.60;99.90
33269;DHT22;19640;50.944;5.260;2023-04-03T00:14:23;3.70;99.90
33269;DHT22;19640;50.944;5.260;2023-04-03T00:16:49;3.60;99.90
33269;DHT22;19640;50.944;5.260;2023-04-03T00:19:15;3.60;99.90
33269;DHT22;19640;50.944;5.260;2023-04-03T00:21:40;3.40;99.90
33269;DHT22;19640;50.944;5.260;2023-04-03T00:24:06;3.40;99.90
33269;DHT22;19640;50.944;5.260;2023-04-03T00:26:32;3.30;99.90
33269;DHT22;19640;50.944;5.260;2023-04-03T00:28:58;3.30;99.90
33269;DHT22;19640;50.944;5.260;2023-04-03T00:31:23;3.40;99.90
33269;DHT22;19640;50.944;5.260;2023-04-03T00:33:49;3.50;99.90
33269;DHT22;19640;50.944;5.260;2023-04-03T00:36:15;3.40;99.90
33269;DHT22;19640;50.944;5.260;2023-04-03T00:38:41;3.30;99.90
33269;DHT22;19640;50.944;5.260;2023-04-03T00:41:07;3.30;99.90
33269;DHT22;19640;50.944;5.260;2023-04-03T00:43:33;3.40;99.90
33269;DHT22;19640;50.944;5.260;2023-04-03T00:45:59;3.40;99.90
33269;DHT22;19640;50.944;5.260;2023-04-03T00:48:31;3.30;99.90
33269;DHT22;19640;50.944;5.260;2023-04-03T00:50:58;3.20;99.90
33269;DHT22;19640;50.944;5.260;2023-04-03T00:53:31;3.20;99.90
33269;DHT22;19640;50.944;5.260;2023-04-03T00:55:58;3.30;99.90
33269;DHT22;19640;50.944;5.260;2023-04-03T00:58:49;3.50;99.90
33269;DHT22;19640;50.944;5.260;2023-04-03T01:01:20;3.60;99.90
33269;DHT22;19640;50.944;5.260;2023-04-03T01:03:47;3.60;99.90
33269;DHT22;19640;50.944;5.260;2023-04-03T01:06:14;3.70;99.90
33269;DHT22;19640;50.944;5.260;2023-04-03T01:08:41;3.80;99.90
33269;DHT22;19640;50.944;5.260;2023-04-03T01:11:07;3.80;99.90
33269;DHT22;19640;50.944;5.260;2023-04-03T01:13:33;3.80;99.90
33269;DHT22;19640;50.944;5.260;2023-04-03T01:16:03;3.70;99.90
33269;DHT22;19640;50.944;5.260;2023-04-03T01:18:30;3.60;99.90
33269;DHT22;19640;50.944;5.260;2023-04-03T01:21:27;3.40;99.90
33269;DHT22;19640;50.944;5.260;2023-04-03T01:24:12;3.20;99.90
33269;DHT22;19640;50.944;5.260;2023-04-03T01:26:41;3.10;99.90
33269;DHT22;19640;50.944;5.260;2023-04-03T01:29:07;3.00;99.90
33269;DHT22;19640;50.944;5.260;2023-04-03T01:31:44;3.00;99.90
33269;DHT22;19640;50.944;5.260;2023-04-03T01:34:10;3.00;99.90
33269;DHT22;19640;50.944;5.260;2023-04-03T01:36:36;3.00;99.90
33269;DHT22;19640;50.944;5.260;2023-04-03T01:39:02;2.90;99.90
33269;DHT22;19640;50.944;5.260;2023-04-03T01:41:28;2.70;99.90
33269;DHT22;19640;50.944;5.260;2023-04-03T01:43:54;2.60;99.90
33269;DHT22;19640;50.944;5.260;2023-04-03T01:46:21;2.60;99.90
33269;DHT22;19640;50.944;5.260;2023-04-03T01:48:47;2.70;99.90
33269;DHT22;19640;50.944;5.260;2023-04-03T01:51:13;2.60;99.90
33269;DHT22;19640;50.944;5.260;2023-04-03T01:53:38;2.60;99.90
33269;DHT22;19640;50.944;5.260;2023-04-03T01:56:04;2.80;99.90
33269;DHT22;19640;50.944;5.260;2023-04-03T01:58:30;2.60;99.90
33269;DHT22;19640;50.944;5.260;2023-04-03T02:00:56;2.60;99.90
33269;DHT22;19640;50.944;5.260;2023-04-03T02:03:21;2.70;99.90
33269;DHT22;19640;50.944;5.260;2023-04-03T02:05:47;2.70;99.90
33269;DHT22;19640;50.944;5.260;2023-04-03T02:08:13;2.80;99.90
33269;DHT22;19640;50.944;5.260;2023-04-03T02:10:39;2.90;99.90
33269;DHT22;19640;50.944;5.260;2023-04-03T02:13:04;2.90;99.90
33269;DHT22;19640;50.944;5.260;2023-04-03T02:15:30;2.60;99.90
33269;DHT22;19640;50.944;5.260;2023-04-03T02:17:56;2.70;99.90
33269;DHT22;19640;50.944;5.260;2023-04-03T02:20:22;2.80;99.90
33269;DHT22;19640;50.944;5.260;2023-04-03T02:22:48;2.90;99.90
33269;DHT22;19640;50.944;5.260;2023-04-03T02:25:14;3.00;99.90
33269;DHT22;19640;50.944;5.260;2023-04-03T02:27:40;3.00;99.90
33269;DHT22;19640;50.944;5.260;2023-04-03T02:30:06;2.80;99.90
33269;DHT22;19640;50.944;5.260;2023-04-03T02:32:32;2.60;99.90
33269;DHT22;19640;50.944;5.260;2023-04-03T02:34:58;2.70;99.90
33269;DHT22;19640;50.944;5.260;2023-04-03T02:37:23;2.50;99.90
33269;DHT22;19640;50.944;5.260;2023-04-03T02:39:50;2.30;99.90
33269;DHT22;19640;50.944;5.260;2023-04-03T02:42:16;2.40;99.90
33269;DHT22;19640;50.944;5.260;2023-04-03T02:44:41;2.30;99.90
33269;DHT22;19640;50.944;5.260;2023-04-03T02:47:07;2.40;99.90
33269;DHT22;19640;50.944;5.260;2023-04-03T02:49:33;2.40;99.90
33269;DHT22;19640;50.944;5.260;2023-04-03T02:51:58;2.50;99.90
33269;DHT22;19640;50.944;5.260;2023-04-03T02:54:24;2.50;99.90
33269;DHT22;19640;50.944;5.260;2023-04-03T02:56:53;2.50;99.90
33269;DHT22;19640;50.944;5.260;2023-04-03T02:59:19;2.50;99.90
33269;DHT22;19640;50.944;5.260;2023-04-03T03:01:45;2.50;99.90
33269;DHT22;19640;50.944;5.260;2023-04-03T03:04:10;2.50;99.90
33269;DHT22;19640;50.944;5.260;2023-04-03T03:06:36;2.60;99.90
33269;DHT22;19640;50.944;5.260;2023-04-03T03:09:02;2.60;99.90
33269;DHT22;19640;50.944;5.260;2023-04-03T03:11:29;2.80;99.90
33269;DHT22;19640;50.944;5.260;2023-04-03T03:13:55;2.80;99.90
33269;DHT22;19640;50.944;5.260;2023-04-03T03:16:20;3.00;99.90
33269;DHT22;19640;50.944;5.260;2023-04-03T03:18:46;2.90;99.90
33269;DHT22;19640;50.944;5.260;2023-04-03T03:21:11;2.80;99.90
33269;DHT22;19640;50.944;5.260;2023-04-03T03:23:37;2.70;99.90
33269;DHT22;19640;50.944;5.260;2023-04-03T03:26:05;2.60;99.90
33269;DHT22;19640;50.944;5.260;2023-04-03T03:28:31;2.60;99.90
33269;DHT22;19640;50.944;5.260;2023-04-03T03:30:58;2.50;99.90
33269;DHT22;19640;50.944;5.260;2023-04-03T03:33:24;2.40;99.90
33269;DHT22;19640;50.944;5.260;2023-04-03T03:35:51;2.40;99.90
33269;DHT22;19640;50.944;5.260;2023-04-03T03:38:17;2.20;99.90
33269;DHT22;19640;50.944;5.260;2023-04-03T03:40:43;2.30;99.90
33269;DHT22;19640;50.944;5.260;2023-04-03T03:43:09;2.20;99.90
33269;DHT22;19640;50.944;5.260;2023-04-03T03:45:35;2.20;99.90
33269;DHT22;19640;50.944;5.260;2023-04-03T03:48:01;2.20;99.90
33269;DHT22;19640;50.944;5.260;2023-04-03T03:50:26;2.20;99.90
33269;DHT22;19640;50.944;5.260;2023-04-03T03:52:52;2.10;99.90
33269;DHT22;19640;50.944;5.260;2023-04-03T03:55:18;1.90;99.90
33269;DHT22;19640;50.944;5.260;2023-04-03T03:57:43;1.80;99.90
33269;DHT22;19640;50.944;5.260;2023-04-03T04:00:10;1.60;99.90
33269;DHT22;19640;50.944;5.260;2023-04-03T04:02:35;1.60;99.90
33269;DHT22;19640;50.944;5.260;2023-04-03T04:05:01;1.80;99.90
33269;DHT22;19640;50.944;5.260;2023-04-03T04:07:27;1.80;99.90
33269;DHT22;19640;50.944;5.260;2023-04-03T04:09:54;1.90;99.90
33269;DHT22;19640;50.944;5.260;2023-04-03T04:12:20;2.00;99.90
33269;DHT22;19640;50.944;5.260;2023-04-03T04:14:46;2.10;99.90
33269;DHT22;19640;50.944;5.260;2023-04-03T04:17:14;2.20;99.90
33269;DHT22;19640;50.944;5.260;2023-04-03T04:19:40;2.20;99.90
33269;DHT22;19640;50.944;5.260;2023-04-03T04:22:06;2.20;99.90
33269;DHT22;19640;50.944;5.260;2023-04-03T04:24:32;2.20;99.90
33269;DHT22;19640;50.944;5.260;2023-04-03T04:26:57;2.30;99.90
33269;DHT22;19640;50.944;5.260;2023-04-03T04:29:23;2.30;99.90
33269;DHT22;19640;50.944;5.260;2023-04-03T04:31:49;2.20;99.90
33269;DHT22;19640;50.944;5.260;2023-04-03T04:34:14;2.30;99.90
33269;DHT22;19640;50.944;5.260;2023-04-03T04:36:40;2.30;99.90
33269;DHT22;19640;50.944;5.260;2023-04-03T04:39:06;2.40;99.90
33269;DHT22;19640;50.944;5.260;2023-04-03T04:41:32;2.40;99.90
33269;DHT22;19640;50.944;5.260;2023-04-03T04:43:58;2.40;99.90
33269;DHT22;19640;50.944;5.260;2023-04-03T04:46:23;2.40;99.90
33269;DHT22;19640;50.944;5.260;2023-04-03T04:48:49;2.50;99.90
33269;DHT22;19640;50.944;5.260;2023-04-03T04:51:16;2.40;99.90
33269;DHT22;19640;50.944;5.260;2023-04-03T04:53:42;2.30;99.90
33269;DHT22;19640;50.944;5.260;2023-04-03T04:56:08;2.10;99.90
33269;DHT22;19640;50.944;5.260;2023-04-03T04:58:34;2.10;99.90
33269;DHT22;19640;50.944;5.260;2023-04-03T05:01:04;2.20;99.90
33269;DHT22;19640;50.944;5.260;2023-04-03T05:03:30;2.40;99.90
33269;DHT22;19640;50.944;5.260;2023-04-03T05:05:56;2.40;99.90
33269;DHT22;19640;50.944;5.260;2023-04-03T05:08:22;2.40;99.90
33269;DHT22;19640;50.944;5.260;2023-04-03T05:10:48;2.40;99.90
33269;DHT22;19640;50.944;5.260;2023-04-03T05:13:14;2.20;99.90
33269;DHT22;19640;50.944;5.260;2023-04-03T05:15:39;2.20;99.90
33269;DHT22;19640;50.944;5.260;2023-04-03T05:18:05;2.30;99.90
33269;DHT22;19640;50.944;5.260;2023-04-03T05:20:32;2.20;99.90
33269;DHT22;19640;50.944;5.260;2023-04-03T05:22:58;2.00;99.90
33269;DHT22;19640;50.944;5.260;2023-04-03T05:25:23;2.00;99.90
33269;DHT22;19640;50.944;5.260;2023-04-03T05:27:49;2.10;99.90
33269;DHT22;19640;50.944;5.260;2023-04-03T05:30:15;2.00;99.90
33269;DHT22;19640;50.944;5.260;2023-04-03T05:32:41;1.90;99.90
33269;DHT22;19640;50.944;5.260;2023-04-03T05:35:08;2.00;99.90
33269;DHT22;19640;50.944;5.260;2023-04-03T05:37:34;2.00;99.90
33269;DHT22;19640;50.944;5.260;2023-04-03T05:40:00;2.00;99.90
33269;DHT22;19640;50.944;5.260;2023-04-03T05:42:25;2.10;99.90
33269;DHT22;19640;50.944;5.260;2023-04-03T05:44:51;2.30;99.90
33269;DHT22;19640;50.944;5.260;2023-04-03T05:47:18;2.50;99.90
33269;DHT22;19640;50.944;5.260;2023-04-03T05:49:44;2.50;99.90
33269;DHT22;19640;50.944;5.260;2023-04-03T05:52:35;2.50;99.90
33269;DHT22;19640;50.944;5.260;2023-04-03T05:55:01;2.40;99.90
33269;DHT22;19640;50.944;5.260;2023-04-03T05:57:27;2.50;99.90
33269;DHT22;19640;50.944;5.260;2023-04-03T05:59:52;2.60;99.90
33269;DHT22;19640;50.944;5.260;2023-04-03T06:02:20;2.70;99.90
33269;DHT22;19640;50.944;5.260;2023-04-03T06:04:46;2.70;99.90
33269;DHT22;19640;50.944;5.260;2023-04-03T06:07:18;2.80;99.90
33269;DHT22;19640;50.944;5.260;2023-04-03T06:09:47;3.30;99.90
33269;DHT22;19640;50.944;5.260;2023-04-03T06:12:12;3.50;99.90
33269;DHT22;19640;50.944;5.260;2023-04-03T06:14:38;3.50;99.90
33269;DHT22;19640;50.944;5.260;2023-04-03T06:17:04;3.20;99.90
33269;DHT22;19640;50.944;5.260;2023-04-03T06:19:31;3.30;99.90
33269;DHT22;19640;50.944;5.260;2023-04-03T06:21:57;3.40;99.90
33269;DHT22;19640;50.944;5.260;2023-04-03T06:24:22;3.70;99.90
33269;DHT22;19640;50.944;5.260;2023-04-03T06:26:50;3.80;99.90
33269;DHT22;19640;50.944;5.260;2023-04-03T06:29:17;3.80;99.90
33269;DHT22;19640;50.944;5.260;2023-04-03T06:31:43;4.20;99.90
33269;DHT22;19640;50.944;5.260;2023-04-03T06:34:08;4.20;99.90
33269;DHT22;19640;50.944;5.260;2023-04-03T06:36:35;4.40;99.90
33269;DHT22;19640;50.944;5.260;2023-04-03T06:39:01;4.40;99.90
33269;DHT22;19640;50.944;5.260;2023-04-03T06:41:28;4.30;99.90
33269;DHT22;19640;50.944;5.260;2023-04-03T06:43:54;4.60;99.90
33269;DHT22;19640;50.944;5.260;2023-04-03T06:46:22;5.00;99.90
33269;DHT22;19640;50.944;5.260;2023-04-03T06:48:49;5.10;99.90
33269;DHT22;19640;50.944;5.260;2023-04-03T06:51:20;5.30;99.90
33269;DHT22;19640;50.944;5.260;2023-04-03T06:53:47;5.30;99.90
33269;DHT22;19640;50.944;5.260;2023-04-03T06:56:13;5.70;99.90
33269;DHT22;19640;50.944;5.260;2023-04-03T06:58:40;6.00;99.90
33269;DHT22;19640;50.944;5.260;2023-04-03T07:01:07;5.70;99.90
33269;DHT22;19640;50.944;5.260;2023-04-03T07:03:33;5.40;99.90
33269;DHT22;19640;50.944;5.260;2023-04-03T07:05:59;5.10;99.90
33269;DHT22;19640;50.944;5.260;2023-04-03T07:08:25;4.90;99.90
33269;DHT22;19640;50.944;5.260;2023-04-03T07:10:51;4.80;99.90
33269;DHT22;19640;50.944;5.260;2023-04-03T07:13:17;4.90;99.90
33269;DHT22;19640;50.944;5.260;2023-04-03T07:15:43;5.10;99.90
33269;DHT22;19640;50.944;5.260;2023-04-03T07:18:09;5.10;99.90
33269;DHT22;19640;50.944;5.260;2023-04-03T07:20:35;5.50;99.90
33269;DHT22;19640;50.944;5.260;2023-04-03T07:23:00;5.80;99.90
33269;DHT22;19640;50.944;5.260;2023-04-03T07:25:28;6.30;99.90
33269;DHT22;19640;50.944;5.260;2023-04-03T07:27:54;6.50;99.90
33269;DHT22;19640;50.944;5.260;2023-04-03T07:30:22;7.10;99.90
33269;DHT22;19640;50.944;5.260;2023-04-03T07:32:48;8.10;99.90
33269;DHT22;19640;50.944;5.260;2023-04-03T07:35:14;8.50;99.90
33269;DHT22;19640;50.944;5.260;2023-04-03T07:37:40;8.80;99.90
33269;DHT22;19640;50.944;5.260;2023-04-03T07:40:07;9.20;99.90
33269;DHT22;19640;50.944;5.260;2023-04-03T07:42:34;9.40;99.90
33269;DHT22;19640;50.944;5.260;2023-04-03T07:45:01;10.00;99.90
33269;DHT22;19640;50.944;5.260;2023-04-03T07:47:27;10.30;99.90
33269;DHT22;19640;50.944;5.260;2023-04-03T07:49:53;10.10;99.90
33269;DHT22;19640;50.944;5.260;2023-04-03T07:52:18;9.90;99.90
33269;DHT22;19640;50.944;5.260;2023-04-03T07:54:44;9.60;99.90
33269;DHT22;19640;50.944;5.260;2023-04-03T07:57:09;9.50;99.90
33269;DHT22;19640;50.944;5.260;2023-04-03T07:59:36;9.70;99.90
33269;DHT22;19640;50.944;5.260;2023-04-03T08:02:01;10.00;99.90
33269;DHT22;19640;50.944;5.260;2023-04-03T08:04:27;9.40;99.90
33269;DHT22;19640;50.944;5.260;2023-04-03T08:06:53;9.60;99.90
33269;DHT22;19640;50.944;5.260;2023-04-03T08:09:18;9.40;99.90
33269;DHT22;19640;50.944;5.260;2023-04-03T08:11:45;8.70;99.90
33269;DHT22;19640;50.944;5.260;2023-04-03T08:14:11;7.80;99.90
33269;DHT22;19640;50.944;5.260;2023-04-03T08:16:43;7.40;99.90
33269;DHT22;19640;50.944;5.260;2023-04-03T08:19:08;7.20;99.90
33269;DHT22;19640;50.944;5.260;2023-04-03T08:21:36;7.00;99.90
33269;DHT22;19640;50.944;5.260;2023-04-03T08:24:01;7.10;99.90
33269;DHT22;19640;50.944;5.260;2023-04-03T08:26:28;6.80;99.90
33269;DHT22;19640;50.944;5.260;2023-04-03T08:28:54;6.70;99.90
33269;DHT22;19640;50.944;5.260;2023-04-03T08:31:20;6.50;99.90
33269;DHT22;19640;50.944;5.260;2023-04-03T08:33:46;6.70;99.90
33269;DHT22;19640;50.944;5.260;2023-04-03T08:36:27;6.70;99.90
33269;DHT22;19640;50.944;5.260;2023-04-03T08:38:53;6.70;99.90
33269;DHT22;19640;50.944;5.260;2023-04-03T08:41:37;6.70;99.90
33269;DHT22;19640;50.944;5.260;2023-04-03T08:49:56;6.90;99.90
33269;DHT22;19640;50.944;5.260;2023-04-03T08:52:32;7.00;99.90
33269;DHT22;19640;50.944;5.260;2023-04-03T08:55:29;7.00;99.90
33269;DHT22;19640;50.944;5.260;2023-04-03T08:58:06;7.00;99.90
33269;DHT22;19640;50.944;5.260;2023-04-03T09:00:45;7.10;99.90
33269;DHT22;19640;50.944;5.260;2023-04-03T09:03:16;7.00;99.90
33269;DHT22;19640;50.944;5.260;2023-04-03T09:08:27;7.10;99.90
33269;DHT22;19640;50.944;5.260;2023-04-03T09:11:09;7.30;99.90
33269;DHT22;19640;50.944;5.260;2023-04-03T09:14:04;7.50;99.90
33269;DHT22;19640;50.944;5.260;2023-04-03T09:16:43;7.50;99.90
33269;DHT22;19640;50.944;5.260;2023-04-03T09:22:02;7.50;99.90
33269;DHT22;19640;50.944;5.260;2023-04-03T09:24:28;7.50;99.90
33269;DHT22;19640;50.944;5.260;2023-04-03T09:27:04;7.20;99.90
33269;DHT22;19640;50.944;5.260;2023-04-03T09:29:31;7.30;99.90
33269;DHT22;19640;50.944;5.260;2023-04-03T09:32:01;7.30;99.90
33269;DHT22;19640;50.944;5.260;2023-04-03T09:34:32;7.50;99.90
33269;DHT22;19640;50.944;5.260;2023-04-03T09:37:03;7.70;99.90
33269;DHT22;19640;50.944;5.260;2023-04-03T09:39:33;7.70;99.90
33269;DHT22;19640;50.944;5.260;2023-04-03T09:42:22;7.70;99.90
33269;DHT22;19640;50.944;5.260;2023-04-03T09:44:59;7.60;99.90
33269;DHT22;19640;50.944;5.260;2023-04-03T09:47:32;7.70;99.90
33269;DHT22;19640;50.944;5.260;2023-04-03T09:52:45;7.60;99.90
33269;DHT22;19640;50.944;5.260;2023-04-03T09:55:18;7.80;99.90
33269;DHT22;19640;50.944;5.260;2023-04-03T09:57:45;7.90;99.90
33269;DHT22;19640;50.944;5.260;2023-04-03T10:00:30;8.00;99.90
33269;DHT22;19640;50.944;5.260;2023-04-03T10:02:57;8.00;99.90
33269;DHT22;19640;50.944;5.260;2023-04-03T10:05:36;8.00;99.90
33269;DHT22;19640;50.944;5.260;2023-04-03T10:10:41;8.00;99.90
33269;DHT22;19640;50.944;5.260;2023-04-03T10:13:19;7.80;99.90
33269;DHT22;19640;50.944;5.260;2023-04-03T10:15:54;7.70;99.40
33269;DHT22;19640;50.944;5.260;2023-04-03T10:18:29;7.80;99.90
33269;DHT22;19640;50.944;5.260;2023-04-03T10:21:10;7.80;99.90
33269;DHT22;19640;50.944;5.260;2023-04-03T10:23:49;8.00;99.90
33269;DHT22;19640;50.944;5.260;2023-04-03T10:26:41;7.80;99.00
33269;DHT22;19640;50.944;5.260;2023-04-03T10:29:21;8.00;99.90
33269;DHT22;19640;50.944;5.260;2023-04-03T10:37:51;8.20;97.60
33269;DHT22;19640;50.944;5.260;2023-04-03T10:43:04;8.20;97.10
33269;DHT22;19640;50.944;5.260;2023-04-03T10:50:52;8.30;92.80
33269;DHT22;19640;50.944;5.260;2023-04-03T10:53:55;8.40;94.40
33269;DHT22;19640;50.944;5.260;2023-04-03T10:57:29;8.40;93.60
33269;DHT22;19640;50.944;5.260;2023-04-03T10:59:34;8.50;93.80
33269;DHT22;19640;50.944;5.260;2023-04-03T11:02:25;8.50;93.00
33269;DHT22;19640;50.944;5.260;2023-04-03T11:04:56;8.50;94.10
33269;DHT22;19640;50.944;5.260;2023-04-03T11:07:27;8.30;93.00
33269;DHT22;19640;50.944;5.260;2023-04-03T11:10:10;8.30;91.10
33269;DHT22;19640;50.944;5.260;2023-04-03T11:12:46;8.50;91.90
33269;DHT22;19640;50.944;5.260;2023-04-03T11:15:18;8.80;91.20
33269;DHT22;19640;50.944;5.260;2023-04-03T11:18:14;8.90;91.00
33269;DHT22;19640;50.944;5.260;2023-04-03T11:20:46;8.80;89.20
33269;DHT22;19640;50.944;5.260;2023-04-03T11:23:25;8.90;92.70
33269;DHT22;19640;50.944;5.260;2023-04-03T11:25:59;8.90;92.30
33269;DHT22;19640;50.944;5.260;2023-04-03T11:28:27;9.00;91.30
33269;DHT22;19640;50.944;5.260;2023-04-03T11:34:25;8.90;90.90
33269;DHT22;19640;50.944;5.260;2023-04-03T11:36:33;9.00;89.80
33269;DHT22;19640;50.944;5.260;2023-04-03T11:39:35;8.90;87.00
33269;DHT22;19640;50.944;5.260;2023-04-03T11:41:54;9.00;88.30
33269;DHT22;19640;50.944;5.260;2023-04-03T11:44:36;9.20;92.80
33269;DHT22;19640;50.944;5.260;2023-04-03T11:47:05;9.10;86.90
33269;DHT22;19640;50.944;5.260;2023-04-03T11:50:00;9.00;84.30
33269;DHT22;19640;50.944;5.260;2023-04-03T12:05:49;9.00;89.80
33269;DHT22;19640;50.944;5.260;2023-04-03T12:08:27;9.40;93.20
33269;DHT22;19640;50.944;5.260;2023-04-03T12:11:26;9.30;90.10
33269;DHT22;19640;50.944;5.260;2023-04-03T12:16:29;9.00;90.50
33269;DHT22;19640;50.944;5.260;2023-04-03T12:29:27;9.70;92.00
33269;DHT22;19640;50.944;5.260;2023-04-03T12:40:09;9.60;90.70
33269;DHT22;19640;50.944;5.260;2023-04-03T12:45:27;9.50;90.40
33269;DHT22;19640;50.944;5.260;2023-04-03T12:47:55;9.50;91.10
33269;DHT22;19640;50.944;5.260;2023-04-03T12:50:33;9.70;91.90
33269;DHT22;19640;50.944;5.260;2023-04-03T12:53:06;9.40;89.90
33269;DHT22;19640;50.944;5.260;2023-04-03T12:55:32;9.60;93.70
33269;DHT22;19640;50.944;5.260;2023-04-03T12:58:14;9.90;92.30
33269;DHT22;19640;50.944;5.260;2023-04-03T13:00:40;9.90;89.70
33269;DHT22;19640;50.944;5.260;2023-04-03T13:03:07;9.90;89.70
33269;DHT22;19640;50.944;5.260;2023-04-03T13:05:45;10.00;91.90
33269;DHT22;19640;50.944;5.260;2023-04-03T13:08:13;10.10;91.90
33269;DHT22;19640;50.944;5.260;2023-04-03T13:13:15;10.00;91.70
33269;DHT22;19640;50.944;5.260;2023-04-03T13:15:44;9.90;88.90
33269;DHT22;19640;50.944;5.260;2023-04-03T13:18:31;9.90;91.20
33269;DHT22;19640;50.944;5.260;2023-04-03T13:21:13;9.70;90.30
33269;DHT22;19640;50.944;5.260;2023-04-03T13:23:43;9.70;90.40
33269;DHT22;19640;50.944;5.260;2023-04-03T13:26:10;9.90;92.00
33269;DHT22;19640;50.944;5.260;2023-04-03T13:28:38;9.70;86.30
33269;DHT22;19640;50.944;5.260;2023-04-03T13:33:55;9.60;91.80
33269;DHT22;19640;50.944;5.260;2023-04-03T13:36:25;9.70;89.80
33269;DHT22;19640;50.944;5.260;2023-04-03T13:41:32;9.80;91.80
33269;DHT22;19640;50.944;5.260;2023-04-03T13:44:17;9.90;91.00
33269;DHT22;19640;50.944;5.260;2023-04-03T13:46:43;9.70;91.30
33269;DHT22;19640;50.944;5.260;2023-04-03T13:49:28;10.00;93.40
33269;DHT22;19640;50.944;5.260;2023-04-03T13:51:55;10.00;91.90
33269;DHT22;19640;50.944;5.260;2023-04-03T13:54:23;10.10;91.80
33269;DHT22;19640;50.944;5.260;2023-04-03T13:56:58;10.00;91.80
33269;DHT22;19640;50.944;5.260;2023-04-03T13:59:32;10.10;91.80
33269;DHT22;19640;50.944;5.260;2023-04-03T14:04:32;10.00;91.10
33269;DHT22;19640;50.944;5.260;2023-04-03T14:06:58;10.10;90.50
33269;DHT22;19640;50.944;5.260;2023-04-03T14:09:26;10.10;92.50
33269;DHT22;19640;50.944;5.260;2023-04-03T14:11:54;10.10;90.90
33269;DHT22;19640;50.944;5.260;2023-04-03T14:14:24;10.10;91.40
33269;DHT22;19640;50.944;5.260;2023-04-03T14:16:58;10.10;91.30
33269;DHT22;19640;50.944;5.260;2023-04-03T14:19:34;10.00;91.40
33269;DHT22;19640;50.944;5.260;2023-04-03T14:22:12;10.10;92.70
33269;DHT22;19640;50.944;5.260;2023-04-03T14:24:38;10.10;91.50
33269;DHT22;19640;50.944;5.260;2023-04-03T14:27:11;9.90;93.10
33269;DHT22;19640;50.944;5.260;2023-04-03T14:29:38;10.10;91.50
33269;DHT22;19640;50.944;5.260;2023-04-03T14:32:04;10.10;90.70
33269;DHT22;19640;50.944;5.260;2023-04-03T14:34:31;10.10;89.10
33269;DHT22;19640;50.944;5.260;2023-04-03T14:36:57;10.10;91.40
33269;DHT22;19640;50.944;5.260;2023-04-03T14:39:22;10.30;91.20
33269;DHT22;19640;50.944;5.260;2023-04-03T14:41:48;10.30;90.50
33269;DHT22;19640;50.944;5.260;2023-04-03T14:44:14;10.20;91.30
33269;DHT22;19640;50.944;5.260;2023-04-03T14:46:42;10.10;90.00
33269;DHT22;19640;50.944;5.260;2023-04-03T14:49:17;10.10;89.50
33269;DHT22;19640;50.944;5.260;2023-04-03T14:51:44;10.10;91.50
33269;DHT22;19640;50.944;5.260;2023-04-03T14:54:21;10.10;91.30
33269;DHT22;19640;50.944;5.260;2023-04-03T14:56:51;10.20;91.90
33269;DHT22;19640;50.944;5.260;2023-04-03T14:59:18;10.30;92.20
33269;DHT22;19640;50.944;5.260;2023-04-03T15:01:45;10.30;93.60
33269;DHT22;19640;50.944;5.260;2023-04-03T15:04:19;10.30;91.50
33269;DHT22;19640;50.944;5.260;2023-04-03T15:06:46;10.20;91.50
33269;DHT22;19640;50.944;5.260;2023-04-03T15:09:24;10.30;92.20
33269;DHT22;19640;50.944;5.260;2023-04-03T15:11:51;10.50;92.10
33269;DHT22;19640;50.944;5.260;2023-04-03T15:14:18;10.20;91.00
33269;DHT22;19640;50.944;5.260;2023-04-03T15:16:44;10.10;91.10
33269;DHT22;19640;50.944;5.260;2023-04-03T15:19:10;10.10;91.80
33269;DHT22;19640;50.944;5.260;2023-04-03T15:21:35;10.10;91.80
33269;DHT22;19640;50.944;5.260;2023-04-03T15:24:02;10.00;91.90
33269;DHT22;19640;50.944;5.260;2023-04-03T15:26:27;10.20;91.70
33269;DHT22;19640;50.944;5.260;2023-04-03T15:28:53;10.20;91.30
33269;DHT22;19640;50.944;5.260;2023-04-03T15:31:19;10.20;90.60
33269;DHT22;19640;50.944;5.260;2023-04-03T15:33:44;10.10;90.80
33269;DHT22;19640;50.944;5.260;2023-04-03T15:36:11;10.20;91.30
33269;DHT22;19640;50.944;5.260;2023-04-03T15:38:36;10.30;91.60
33269;DHT22;19640;50.944;5.260;2023-04-03T15:41:04;10.20;92.50
33269;DHT22;19640;50.944;5.260;2023-04-03T15:43:29;10.10;90.80
33269;DHT22;19640;50.944;5.260;2023-04-03T15:45:57;10.00;90.50
33269;DHT22;19640;50.944;5.260;2023-04-03T15:48:24;10.00;90.70
33269;DHT22;19640;50.944;5.260;2023-04-03T15:50:49;10.00;91.00
33269;DHT22;19640;50.944;5.260;2023-04-03T15:53:15;10.10;91.80
33269;DHT22;19640;50.944;5.260;2023-04-03T15:55:41;10.10;90.30
33269;DHT22;19640;50.944;5.260;2023-04-03T15:58:07;10.00;91.60
33269;DHT22;19640;50.944;5.260;2023-04-03T16:00:33;10.10;90.90
33269;DHT22;19640;50.944;5.260;2023-04-03T16:03:02;10.10;90.70
33269;DHT22;19640;50.944;5.260;2023-04-03T16:05:29;10.00;89.90
33269;DHT22;19640;50.944;5.260;2023-04-03T16:07:57;9.80;89.20
33269;DHT22;19640;50.944;5.260;2023-04-03T16:10:23;9.80;90.70
33269;DHT22;19640;50.944;5.260;2023-04-03T16:12:49;9.90;90.90
33269;DHT22;19640;50.944;5.260;2023-04-03T16:15:14;9.90;90.80
33269;DHT22;19640;50.944;5.260;2023-04-03T16:17:40;9.80;90.00
33269;DHT22;19640;50.944;5.260;2023-04-03T16:20:08;9.70;89.30
33269;DHT22;19640;50.944;5.260;2023-04-03T16:22:34;9.80;90.90
33269;DHT22;19640;50.944;5.260;2023-04-03T16:25:01;9.60;90.70
33269;DHT22;19640;50.944;5.260;2023-04-03T16:27:27;9.60;90.90
33269;DHT22;19640;50.944;5.260;2023-04-03T16:29:54;9.60;89.60
33269;DHT22;19640;50.944;5.260;2023-04-03T16:32:21;9.50;88.80
33269;DHT22;19640;50.944;5.260;2023-04-03T16:34:47;9.50;90.30
33269;DHT22;19640;50.944;5.260;2023-04-03T16:37:12;9.50;90.00
33269;DHT22;19640;50.944;5.260;2023-04-03T16:39:38;9.50;89.70
33269;DHT22;19640;50.944;5.260;2023-04-03T16:42:04;9.50;90.40
33269;DHT22;19640;50.944;5.260;2023-04-03T16:44:29;9.50;91.20
33269;DHT22;19640;50.944;5.260;2023-04-03T16:46:55;9.50;91.20
33269;DHT22;19640;50.944;5.260;2023-04-03T16:49:21;9.40;90.80
33269;DHT22;19640;50.944;5.260;2023-04-03T16:51:48;9.40;90.70
33269;DHT22;19640;50.944;5.260;2023-04-03T16:54:14;9.30;89.80
33269;DHT22;19640;50.944;5.260;2023-04-03T16:56:39;9.50;90.40
33269;DHT22;19640;50.944;5.260;2023-04-03T16:59:05;9.40;91.50
33269;DHT22;19640;50.944;5.260;2023-04-03T17:01:31;9.40;90.00
33269;DHT22;19640;50.944;5.260;2023-04-03T17:03:57;9.30;90.00
33269;DHT22;19640;50.944;5.260;2023-04-03T17:06:23;9.30;91.00
33269;DHT22;19640;50.944;5.260;2023-04-03T17:08:50;9.30;90.80
33269;DHT22;19640;50.944;5.260;2023-04-03T17:11:16;9.20;90.40
33269;DHT22;19640;50.944;5.260;2023-04-03T17:13:42;9.20;90.10
33269;DHT22;19640;50.944;5.260;2023-04-03T17:16:11;9.10;90.10